createdAt,value
2018-06-24T00:00:20.682Z,4.8
2018-06-24T00:03:20.765Z,4.8
2018-06-24T00:06:20.717Z,4.8
2018-06-24T00:09:20.615Z,4.8
2018-06-24T00:12:20.554Z,4.8
2018-06-24T00:15:20.808Z,4.8
2018-06-24T00:18:20.565Z,4.8
2018-06-24T00:21:20.525Z,4.8
2018-06-24T00:24:20.467Z,4.8
2018-06-24T00:27:20.619Z,4.8
2018-06-24T00:30:20.851Z,4.8
2018-06-24T00:33:20.831Z,4.8
2018-06-24T00:36:20.866Z,4.8
2018-06-24T00:39:20.527Z,4.8
2018-06-24T00:42:20.570Z,4.8
2018-06-24T00:45:20.545Z,4.8
2018-06-24T00:48:20.592Z,4.8
2018-06-24T00:51:20.708Z,4.8
2018-06-24T00:54:20.623Z,4.8
2018-06-24T00:57:20.537Z,4.8
2018-06-24T01:00:20.536Z,4.6
2018-06-24T01:03:20.643Z,4.6
2018-06-24T01:06:20.458Z,4.6
2018-06-24T01:09:20.601Z,4.6
2018-06-24T01:12:20.642Z,4.6
2018-06-24T01:15:20.561Z,4.6
2018-06-24T01:18:20.516Z,4.6
2018-06-24T01:21:20.454Z,4.6
2018-06-24T01:24:20.686Z,4.6
2018-06-24T01:27:20.527Z,4.6
2018-06-24T01:30:20.742Z,4.6
2018-06-24T01:33:20.618Z,4.6
2018-06-24T01:36:20.710Z,4.6
2018-06-24T01:39:20.504Z,4.6
2018-06-24T01:42:20.503Z,4.6
2018-06-24T01:45:20.600Z,4.6
2018-06-24T01:48:20.657Z,4.6
2018-06-24T01:51:20.522Z,4.6
2018-06-24T01:54:20.844Z,4.6
2018-06-24T01:57:20.561Z,4.6
2018-06-24T02:00:20.479Z,4.4
2018-06-24T02:03:20.665Z,4.4
2018-06-24T02:06:20.776Z,4.4
2018-06-24T02:09:20.600Z,4.4
2018-06-24T02:12:20.485Z,4.4
2018-06-24T02:15:20.632Z,4.4
2018-06-24T02:18:20.779Z,4.4
2018-06-24T02:21:20.703Z,4.4
2018-06-24T02:24:20.515Z,4.4
2018-06-24T02:27:20.607Z,4.4
2018-06-24T02:30:20.798Z,4.4
2018-06-24T02:33:20.653Z,4.4
2018-06-24T02:36:21.291Z,4.4
2018-06-24T02:39:20.538Z,4.4
2018-06-24T02:42:20.814Z,4.4
2018-06-24T02:45:20.826Z,4.4
2018-06-24T02:48:20.516Z,4.4
2018-06-24T02:51:20.644Z,4.4
2018-06-24T02:54:20.601Z,4.4
2018-06-24T02:57:20.811Z,4.4
2018-06-24T03:00:20.527Z,4.3
2018-06-24T03:03:20.589Z,4.3
2018-06-24T03:06:20.562Z,4.3
2018-06-24T03:09:20.650Z,4.3
2018-06-24T03:12:20.632Z,4.3
2018-06-24T03:15:20.670Z,4.3
2018-06-24T03:18:20.504Z,4.3
2018-06-24T03:21:20.588Z,4.3
2018-06-24T03:24:20.504Z,4.3
2018-06-24T03:27:20.640Z,4.3
2018-06-24T03:30:20.531Z,4.3
2018-06-24T03:33:20.528Z,4.3
2018-06-24T03:36:20.748Z,4.3
2018-06-24T03:39:20.489Z,4.3
2018-06-24T03:42:20.461Z,4.3
2018-06-24T03:45:20.640Z,4.3
2018-06-24T03:48:20.617Z,4.3
2018-06-24T03:51:20.785Z,4.3
2018-06-24T03:54:20.535Z,4.3
2018-06-24T03:57:20.706Z,4.3
2018-06-24T04:00:20.790Z,4.1
2018-06-24T04:03:20.536Z,4.1
2018-06-24T04:06:20.561Z,4.1
2018-06-24T04:09:20.527Z,4.1
2018-06-24T04:12:20.605Z,4.1
2018-06-24T04:15:20.447Z,4.1
2018-06-24T04:18:21.155Z,4.1
2018-06-24T04:21:20.499Z,4.1
2018-06-24T04:24:20.501Z,4.1
2018-06-24T04:27:20.492Z,4.1
2018-06-24T04:30:20.512Z,4.1
2018-06-24T04:33:20.476Z,4.1
2018-06-24T04:36:20.774Z,4.1
2018-06-24T04:39:20.729Z,4.1
2018-06-24T04:42:20.539Z,4.1
2018-06-24T04:45:20.784Z,4.1
2018-06-24T04:48:20.496Z,4.1
2018-06-24T04:51:20.706Z,4.1
2018-06-24T04:54:20.453Z,4.1
2018-06-24T04:57:20.514Z,4.1
2018-06-24T05:00:20.576Z,4
2018-06-24T05:03:20.570Z,4
2018-06-24T05:06:21.070Z,4
2018-06-24T05:09:20.660Z,4
2018-06-24T05:12:20.802Z,4
2018-06-24T05:15:20.665Z,4
2018-06-24T05:18:20.459Z,4
2018-06-24T05:21:20.630Z,4
2018-06-24T05:24:20.366Z,4
2018-06-24T05:27:20.632Z,4
2018-06-24T05:30:20.471Z,4
2018-06-24T05:33:20.476Z,4
2018-06-24T05:36:20.564Z,4
2018-06-24T05:39:20.556Z,4
2018-06-24T05:42:20.564Z,4
2018-06-24T05:45:20.445Z,4
2018-06-24T05:48:20.634Z,4
2018-06-24T05:51:20.537Z,4
2018-06-24T05:54:21.266Z,4
2018-06-24T05:57:20.366Z,4
2018-06-24T06:00:20.571Z,3.9
2018-06-24T06:03:20.570Z,3.9
2018-06-24T06:06:20.495Z,3.9
2018-06-24T06:09:20.491Z,3.9
2018-06-24T06:12:20.513Z,3.9
2018-06-24T06:15:20.405Z,3.9
2018-06-24T06:18:20.453Z,3.9
2018-06-24T06:21:20.498Z,3.9
2018-06-24T06:24:20.599Z,3.9
2018-06-24T06:27:20.462Z,3.9
2018-06-24T06:30:22.367Z,3.9
2018-06-24T06:33:20.521Z,3.9
2018-06-24T06:36:20.488Z,3.9
2018-06-24T06:39:20.532Z,3.9
2018-06-24T06:42:20.518Z,3.9
2018-06-24T06:45:22.870Z,3.9
2018-06-24T06:48:20.552Z,3.9
2018-06-24T06:51:20.477Z,3.9
2018-06-24T06:54:20.558Z,3.9
2018-06-24T06:57:20.498Z,3.9
2018-06-24T07:00:20.520Z,3.8
2018-06-24T07:03:21.335Z,3.8
2018-06-24T07:06:20.767Z,3.8
2018-06-24T07:09:20.600Z,3.8
2018-06-24T07:12:20.588Z,3.8
2018-06-24T07:15:20.608Z,3.8
2018-06-24T07:18:20.632Z,3.8
2018-06-24T07:21:20.659Z,3.8
2018-06-24T07:24:20.671Z,3.8
2018-06-24T07:27:20.704Z,3.8
2018-06-24T07:30:20.700Z,3.8
2018-06-24T07:33:21.858Z,3.8
2018-06-24T07:36:20.709Z,3.8
2018-06-24T07:39:21.237Z,3.8
2018-06-24T07:42:20.761Z,3.8
2018-06-24T07:45:20.766Z,3.8
2018-06-24T07:48:20.763Z,3.8
2018-06-24T07:51:20.814Z,3.8
2018-06-24T07:54:20.828Z,3.8
2018-06-24T07:57:21.691Z,3.8
2018-06-24T08:00:20.795Z,4.1
2018-06-24T08:03:21.517Z,4.1
2018-06-24T08:06:20.463Z,4.1
2018-06-24T08:09:20.945Z,4.1
2018-06-24T08:12:20.882Z,4.1
2018-06-24T08:15:20.856Z,4.1
2018-06-24T08:18:20.400Z,4.1
2018-06-24T08:21:20.457Z,4.1
2018-06-24T08:24:20.436Z,4.1
2018-06-24T08:27:20.837Z,4.1
2018-06-24T08:30:20.574Z,4.1
2018-06-24T08:33:20.941Z,4.1
2018-06-24T08:36:20.431Z,4.1
2018-06-24T08:39:20.961Z,4.1
2018-06-24T08:42:20.388Z,4.1
2018-06-24T08:45:20.657Z,4.1
2018-06-24T08:48:20.586Z,4.1
2018-06-24T08:51:20.587Z,4.1
2018-06-24T08:54:21.375Z,4.1
2018-06-24T08:57:20.623Z,4.1
2018-06-24T09:00:20.467Z,4.2
2018-06-24T09:03:20.658Z,4.2
2018-06-24T09:06:20.511Z,4.2
2018-06-24T09:09:20.553Z,4.2
2018-06-24T09:12:20.522Z,4.2
2018-06-24T09:15:20.413Z,4.2
2018-06-24T09:18:20.648Z,4.2
2018-06-24T09:21:21.309Z,4.2
2018-06-24T09:24:20.451Z,4.2
2018-06-24T09:27:20.606Z,4.2
2018-06-24T09:30:20.492Z,4.2
2018-06-24T09:33:20.528Z,4.2
2018-06-24T09:36:20.581Z,4.2
2018-06-24T09:39:20.586Z,4.2
2018-06-24T09:42:20.718Z,4.2
2018-06-24T09:45:20.615Z,4.2
2018-06-24T09:48:20.603Z,4.2
2018-06-24T09:51:20.645Z,4.2
2018-06-24T09:54:20.646Z,4.2
2018-06-24T09:57:20.691Z,4.2
2018-06-24T10:00:20.688Z,4.3
2018-06-24T10:03:21.244Z,4.3
2018-06-24T10:06:20.756Z,4.3
2018-06-24T10:09:20.667Z,4.3
2018-06-24T10:12:20.704Z,4.3
2018-06-24T10:15:20.650Z,4.3
2018-06-24T10:18:20.730Z,4.3
2018-06-24T10:21:20.274Z,4.3
2018-06-24T10:24:20.743Z,4.3
2018-06-24T10:27:20.779Z,4.3
2018-06-24T10:30:20.323Z,4.3
2018-06-24T10:33:20.780Z,4.3
2018-06-24T10:36:20.748Z,4.3
2018-06-24T10:39:20.361Z,4.3
2018-06-24T10:42:20.410Z,4.3
2018-06-24T10:45:20.818Z,4.3
2018-06-24T10:48:20.444Z,4.3
2018-06-24T10:51:20.791Z,4.3
2018-06-24T10:54:20.509Z,4.3
2018-06-24T10:57:20.495Z,4.3
2018-06-24T11:00:20.354Z,4.4
2018-06-24T11:03:20.721Z,4.4
2018-06-24T11:06:20.491Z,4.4
2018-06-24T11:09:20.460Z,4.4
2018-06-24T11:12:20.561Z,4.4
2018-06-24T11:15:20.563Z,4.4
2018-06-24T11:18:20.512Z,4.4
2018-06-24T11:21:20.342Z,4.4
2018-06-24T11:24:20.523Z,4.4
2018-06-24T11:27:20.418Z,4.4
2018-06-24T11:30:20.500Z,4.4
2018-06-24T11:33:20.514Z,4.4
2018-06-24T11:36:20.571Z,4.4
2018-06-24T11:39:20.550Z,4.4
2018-06-24T11:42:20.528Z,4.4
2018-06-24T11:45:20.551Z,4.4
2018-06-24T11:48:20.388Z,4.4
2018-06-24T11:51:20.824Z,4.4
2018-06-24T11:54:20.612Z,4.4
2018-06-24T11:57:20.469Z,4.4
2018-06-24T12:00:20.467Z,4.4
2018-06-24T12:03:20.585Z,4.4
2018-06-24T12:06:20.467Z,4.4
2018-06-24T12:09:20.523Z,4.4
2018-06-24T12:12:20.469Z,4.4
2018-06-24T12:15:20.722Z,4.4
2018-06-24T12:18:21.758Z,4.4
2018-06-24T12:21:20.568Z,4.4
2018-06-24T12:24:20.461Z,4.4
2018-06-24T12:27:20.368Z,4.4
2018-06-24T12:30:20.344Z,4.4
2018-06-24T12:33:20.430Z,4.4
2018-06-24T12:36:20.501Z,4.4
2018-06-24T12:39:20.321Z,4.4
2018-06-24T12:42:20.645Z,4.4
2018-06-24T12:45:20.545Z,4.4
2018-06-24T12:48:20.364Z,4.4
2018-06-24T12:51:20.520Z,4.4
2018-06-24T12:54:20.592Z,4.4
2018-06-24T12:57:20.684Z,4.4
2018-06-24T13:00:30.100Z,4.6
2018-06-24T13:03:20.408Z,4.6
2018-06-24T13:06:20.471Z,4.6
2018-06-24T13:09:20.292Z,4.6
2018-06-24T13:12:20.675Z,4.6
2018-06-24T13:15:20.445Z,4.6
2018-06-24T13:18:20.366Z,4.6
2018-06-24T13:21:21.196Z,4.6
2018-06-24T13:24:20.337Z,4.6
2018-06-24T13:27:20.373Z,4.6
2018-06-24T13:30:20.527Z,4.6
2018-06-24T13:33:20.345Z,4.6
2018-06-24T13:36:20.308Z,4.6
2018-06-24T13:39:20.572Z,4.6
2018-06-24T13:42:21.187Z,4.6
2018-06-24T13:45:20.359Z,4.6
2018-06-24T13:48:20.392Z,4.6
2018-06-24T13:51:20.460Z,4.6
2018-06-24T13:54:20.248Z,4.6
2018-06-24T13:57:20.480Z,4.6
2018-06-24T14:00:20.226Z,4.6
2018-06-24T14:03:44.890Z,4.6
2018-06-24T14:06:20.329Z,4.6
2018-06-24T14:09:20.254Z,4.6
2018-06-24T14:12:20.589Z,4.6
2018-06-24T14:15:20.353Z,4.6
2018-06-24T14:18:20.600Z,4.6
2018-06-24T14:21:20.485Z,4.6
2018-06-24T14:24:20.228Z,4.6
2018-06-24T14:27:20.430Z,4.6
2018-06-24T14:30:20.499Z,4.6
2018-06-24T14:33:20.523Z,4.6
2018-06-24T14:36:20.409Z,4.6
2018-06-24T14:39:20.301Z,4.6
2018-06-24T14:42:20.424Z,4.6
2018-06-24T14:45:20.296Z,4.6
2018-06-24T14:48:20.481Z,4.6
2018-06-24T14:51:20.313Z,4.6
2018-06-24T14:54:20.435Z,4.6
2018-06-24T14:57:20.374Z,4.6
2018-06-24T15:00:20.245Z,4.6
2018-06-24T15:03:20.508Z,4.6
2018-06-24T15:06:20.283Z,4.6
2018-06-24T15:09:20.667Z,4.6
2018-06-24T15:12:20.440Z,4.6
2018-06-24T15:15:20.629Z,4.6
2018-06-24T15:18:20.557Z,4.6
2018-06-24T15:21:20.392Z,4.6
2018-06-24T15:24:20.413Z,4.6
2018-06-24T15:27:20.262Z,4.6
2018-06-24T15:30:20.533Z,4.6
2018-06-24T15:33:20.524Z,4.6
2018-06-24T15:36:20.248Z,4.6
2018-06-24T15:39:20.388Z,4.6
2018-06-24T15:42:20.267Z,4.6
2018-06-24T15:45:20.214Z,4.6
2018-06-24T15:48:20.511Z,4.6
2018-06-24T15:51:20.971Z,4.6
2018-06-24T15:54:20.391Z,4.6
2018-06-24T15:57:20.550Z,4.6
2018-06-24T16:00:20.253Z,4.6
2018-06-24T16:03:20.422Z,4.6
2018-06-24T16:06:20.550Z,4.6
2018-06-24T16:09:20.214Z,4.6
2018-06-24T16:12:20.536Z,4.6
2018-06-24T16:15:20.360Z,4.6
2018-06-24T16:18:20.419Z,4.6
2018-06-24T16:21:21.223Z,4.6
2018-06-24T16:24:20.443Z,4.6
2018-06-24T16:27:20.369Z,4.6
2018-06-24T16:30:20.569Z,4.6
2018-06-24T16:33:20.403Z,4.6
2018-06-24T16:36:20.443Z,4.6
2018-06-24T16:39:20.465Z,4.6
2018-06-24T16:42:20.944Z,4.6
2018-06-24T16:45:20.273Z,4.6
2018-06-24T16:48:20.283Z,4.6
2018-06-24T16:51:20.550Z,4.6
2018-06-24T16:54:20.699Z,4.6
2018-06-24T16:57:20.484Z,4.6
2018-06-24T17:00:20.301Z,4.4
2018-06-24T17:03:20.487Z,4.4
2018-06-24T17:06:20.218Z,4.4
2018-06-24T17:09:20.213Z,4.4
2018-06-24T17:12:20.364Z,4.4
2018-06-24T17:15:20.179Z,4.4
2018-06-24T17:18:20.358Z,4.4
2018-06-24T17:21:20.299Z,4.4
2018-06-24T17:24:20.463Z,4.4
2018-06-24T17:27:20.365Z,4.4
2018-06-24T17:30:20.281Z,4.4
2018-06-24T17:33:20.294Z,4.4
2018-06-24T17:36:20.396Z,4.4
2018-06-24T17:39:20.462Z,4.4
2018-06-24T17:42:20.369Z,4.4
2018-06-24T17:45:20.306Z,4.4
2018-06-24T17:48:20.423Z,4.4
2018-06-24T17:51:20.342Z,4.4
2018-06-24T17:54:20.523Z,4.4
2018-06-24T17:57:20.234Z,4.4
2018-06-24T18:00:20.432Z,4.4
2018-06-24T18:03:20.340Z,4.4
2018-06-24T18:06:20.540Z,4.4
2018-06-24T18:09:20.445Z,4.4
2018-06-24T18:12:20.513Z,4.4
2018-06-24T18:15:21.051Z,4.4
2018-06-24T18:18:20.403Z,4.4
2018-06-24T18:21:20.423Z,4.4
2018-06-24T18:24:20.230Z,4.4
2018-06-24T18:27:20.259Z,4.4
2018-06-24T18:30:20.442Z,4.4
2018-06-24T18:33:20.435Z,4.4
2018-06-24T18:36:20.486Z,4.4
2018-06-24T18:39:20.246Z,4.4
2018-06-24T18:42:20.342Z,4.4
2018-06-24T18:45:21.065Z,4.4
2018-06-24T18:48:20.438Z,4.4
2018-06-24T18:51:20.283Z,4.4
2018-06-24T18:54:20.540Z,4.4
2018-06-24T18:57:20.289Z,4.4
2018-06-24T19:00:20.566Z,4.4
2018-06-24T19:03:20.348Z,4.4
2018-06-24T19:06:20.461Z,4.4
2018-06-24T19:09:20.362Z,4.4
2018-06-24T19:12:20.396Z,4.4
2018-06-24T19:15:20.471Z,4.4
2018-06-24T19:18:20.265Z,4.4
2018-06-24T19:21:20.544Z,4.4
2018-06-24T19:24:20.243Z,4.4
2018-06-24T19:27:20.378Z,4.4
2018-06-24T19:30:20.517Z,4.4
2018-06-24T19:33:20.360Z,4.4
2018-06-24T19:36:20.268Z,4.4
2018-06-24T19:39:21.437Z,4.4
2018-06-24T19:42:20.192Z,4.4
2018-06-24T19:45:20.438Z,4.4
2018-06-24T19:48:20.357Z,4.4
2018-06-24T19:51:20.353Z,4.4
2018-06-24T19:54:20.306Z,4.4
2018-06-24T19:57:20.263Z,4.4
2018-06-24T20:00:20.454Z,4.5
2018-06-24T20:03:20.458Z,4.5
2018-06-24T20:06:20.374Z,4.5
2018-06-24T20:09:20.962Z,4.5
2018-06-24T20:12:20.417Z,4.5
2018-06-24T20:15:20.414Z,4.5
2018-06-24T20:18:20.362Z,4.5
2018-06-24T20:21:20.512Z,4.5
2018-06-24T20:24:20.489Z,4.5
2018-06-24T20:27:20.926Z,4.5
2018-06-24T20:30:20.507Z,4.5
2018-06-24T20:33:20.517Z,4.5
2018-06-24T20:36:20.534Z,4.5
2018-06-24T20:39:20.468Z,4.5
2018-06-24T20:42:20.447Z,4.5
2018-06-24T20:45:20.578Z,4.5
2018-06-24T20:48:20.529Z,4.5
2018-06-24T20:51:20.554Z,4.5
2018-06-24T20:54:20.616Z,4.5
2018-06-24T20:57:20.530Z,4.5
2018-06-24T21:00:20.548Z,4.5
2018-06-24T21:03:20.668Z,4.5
2018-06-24T21:06:20.665Z,4.5
2018-06-24T21:09:20.375Z,4.5
2018-06-24T21:12:20.292Z,4.5
2018-06-24T21:15:20.261Z,4.5
2018-06-24T21:18:20.329Z,4.5
2018-06-24T21:21:20.463Z,4.5
2018-06-24T21:24:20.803Z,4.5
2018-06-24T21:27:20.314Z,4.5
2018-06-24T21:30:20.238Z,4.5
2018-06-24T21:33:20.338Z,4.5
2018-06-24T21:36:20.519Z,4.5
2018-06-24T21:39:20.300Z,4.5
2018-06-24T21:42:20.188Z,4.5
2018-06-24T21:45:20.291Z,4.5
2018-06-24T21:48:20.407Z,4.5
2018-06-24T21:51:20.504Z,4.5
2018-06-24T21:54:20.300Z,4.5
2018-06-24T21:57:20.198Z,4.5
2018-06-24T22:00:20.287Z,4.5
2018-06-24T22:03:20.409Z,4.5
2018-06-24T22:06:20.215Z,4.5
2018-06-24T22:09:20.243Z,4.5
2018-06-24T22:12:20.382Z,4.5
2018-06-24T22:15:20.221Z,4.5
2018-06-24T22:18:20.288Z,4.5
2018-06-24T22:21:20.244Z,4.5
2018-06-24T22:24:20.179Z,4.5
2018-06-24T22:27:20.244Z,4.5
2018-06-24T22:30:20.267Z,4.5
2018-06-24T22:33:20.187Z,4.5
2018-06-24T22:36:20.395Z,4.5
2018-06-24T22:39:20.355Z,4.5
2018-06-24T22:42:20.381Z,4.5
2018-06-24T22:45:20.138Z,4.5
2018-06-24T22:48:20.316Z,4.5
2018-06-24T22:51:20.290Z,4.5
2018-06-24T22:54:20.175Z,4.5
2018-06-24T22:57:20.358Z,4.5
2018-06-24T23:00:20.265Z,4.5
2018-06-24T23:03:20.396Z,4.5
2018-06-24T23:06:20.324Z,4.5
2018-06-24T23:09:20.316Z,4.5
2018-06-24T23:12:20.119Z,4.5
2018-06-24T23:15:20.145Z,4.5
2018-06-24T23:18:20.127Z,4.5
2018-06-24T23:21:20.173Z,4.5
2018-06-24T23:24:20.397Z,4.5
2018-06-24T23:27:20.220Z,4.5
2018-06-24T23:30:20.412Z,4.5
2018-06-24T23:33:20.255Z,4.5
2018-06-24T23:36:20.251Z,4.5
2018-06-24T23:39:20.227Z,4.5
2018-06-24T23:42:20.319Z,4.5
2018-06-24T23:45:20.319Z,4.5
2018-06-24T23:48:20.209Z,4.5
2018-06-24T23:51:20.415Z,4.5
2018-06-24T23:54:20.411Z,4.5
2018-06-24T23:57:20.283Z,4.5
